메인 페이지
METAR-TAF:

METAR-TAF

공항 :

몬트세랫, 몬트세랫

위도: 16-47-29N, 경도: 062-11-36W, 고도: 168m

현재 날씨관측

예보는 46분 전, 10:00시(UTC)에 발표되었습니다.
동남동9kt
온도 23°C
습도 94%
기압 1019 hPa
시정 10km 이상
고도 1800ft 상공 구름 보통
고도 3800ft 상공 구름 많음
약한소나기

METAR: TRPG 181000Z 11009KT 9999 -SHRA SCT018 BKN038 23/22 Q1019

시각: 06:46 (10:46 UTC)

예보

예보는 11 시간 46분 전, 23:00시(UTC)에 발표되었습니다.
예보 대상 시간: 18일 00시부터 18일 24시까지 (UTC)
동남동8kt
시정 10km 이상
고도 2000ft 상공 구름 보통
확률 30% :
일시적
18일 00시부터 18일 14시까지 (UTC)
소나기

TAF: TRPG 172300Z 1800/1824 11008KT 9999 SCT020 PROB30 TEMPO 1800/1814 SHRA

4,000개 이상의 공항 관측 자료 및 예보 (METAR 및 TAF 보고).

지도상에서 검색 가능한 기상관측소가 노란 점과 빨간 점으로 표시되어 있습니다.

기상관측소 명을 보려면 표시 위로 마우스를 이동하세요.

날씨 관측과 예보를 보려면 클릭하세요.

지도 변경 : 확대하려면 엑스 표시가 있는 녹색 버튼, 축소하려면 빼기 표시가 있는 녹색 버튼, 다음 페이지의 지도를 보려면 녹색 화살표를 클릭하세요.


METAR-TAF: